Time;durP1;ratioP1;P1;durP2;ratioP2;P2;SDS_P1;SDS_P2;PMS_P1;PMS_P2;Temp;Humidity;BMP_temperature;BMP_pressure;BME280_temperature;BME280_humidity;BME280_pressure;Samples;Min_cycle;Max_cycle;Signal;HPM_P1;HPM_P2
2022/07/15 00:00:33;;;;;;;0.10;0.10;;;17.50;69.40;;;18.83;59.74;102192.63;2055861;28;20589;-70
2022/07/15 00:01:36;;;;;;;0.10;0.10;;;17.50;69.70;;;18.84;59.88;102196.94;2050750;28;20055;-70
2022/07/15 00:02:40;;;;;;;0.10;0.10;;;17.50;69.80;;;18.84;59.78;102198.88;2052906;28;20118;-69
2022/07/15 00:03:43;;;;;;;0.10;0.10;;;17.50;69.90;;;18.81;59.80;102196.88;2048411;28;20506;-71
2022/07/15 00:04:46;;;;;;;0.10;0.10;;;17.50;69.90;;;18.78;59.81;102201.13;2048397;29;20414;-71
2022/07/15 00:05:49;;;;;;;0.00;0.00;;;17.50;69.80;;;18.75;59.83;102196.41;2055765;28;20101;-71
2022/07/15 00:06:52;;;;;;;0.00;0.00;;;17.50;69.60;;;18.73;59.70;102204.16;2056936;28;20074;-70
2022/07/15 00:07:55;;;;;;;0.10;0.10;;;17.50;69.50;;;18.72;59.73;102188.13;2055610;28;20090;-71
2022/07/15 00:08:58;;;;;;;0.10;0.10;;;17.40;69.50;;;18.69;59.41;102199.78;2053459;28;20082;-71
2022/07/15 00:10:18;;;;;;;0.08;0.08;;;17.30;69.20;;;18.64;59.29;102189.94;2052819;28;20086;-71
2022/07/15 00:11:22;;;;;;;0.10;0.10;;;17.40;69.20;;;18.61;59.52;102193.41;2053684;28;20065;-71
2022/07/15 00:12:24;;;;;;;0.10;0.10;;;17.30;69.00;;;18.56;59.42;102190.94;2052388;28;20059;-71
2022/07/15 00:13:31;;;;;;;0.10;0.10;;;17.30;68.90;;;18.56;59.59;102196.41;2052850;28;20062;-71
2022/07/15 00:14:33;;;;;;;0.10;0.10;;;17.30;69.10;;;18.55;59.76;102188.56;2053645;28;20101;-71
2022/07/15 00:15:37;;;;;;;0.03;0.03;;;17.20;69.20;;;18.54;59.79;102192.44;2052578;28;20174;-71
2022/07/15 00:16:39;;;;;;;0.00;0.00;;;17.30;69.30;;;18.54;59.64;102190.50;2053608;28;20046;-72
2022/07/15 00:17:44;;;;;;;0.05;0.05;;;17.30;69.40;;;18.55;59.80;102192.06;2053682;28;20057;-71
2022/07/15 00:18:46;;;;;;;0.00;0.00;;;17.30;69.40;;;18.54;59.48;102193.25;2044570;28;20139;-70
2022/07/15 00:19:50;;;;;;;0.10;0.10;;;17.30;69.10;;;18.55;59.43;102191.31;2037358;29;20496;-71
2022/07/15 00:20:53;;;;;;;0.10;0.10;;;17.20;69.10;;;18.54;59.21;102190.50;2044307;28;20062;-71
2022/07/15 00:21:56;;;;;;;0.05;0.05;;;17.20;68.90;;;18.54;59.10;102195.97;2052520;28;20086;-71
2022/07/15 00:23:00;;;;;;;0.13;0.13;;;17.20;68.80;;;18.55;58.98;102194.81;2053393;28;20062;-71
2022/07/15 00:24:04;;;;;;;0.10;0.10;;;17.20;68.80;;;18.50;59.16;102194.34;2052818;28;20118;-71
2022/07/15 00:25:10;;;;;;;0.10;0.10;;;17.20;68.80;;;18.54;58.74;102195.97;2053056;28;20061;-71
2022/07/15 00:26:12;;;;;;;0.08;0.08;;;17.20;68.70;;;18.54;58.62;102198.72;2054476;28;20050;-71
2022/07/15 00:27:16;;;;;;;0.00;0.00;;;17.20;68.60;;;18.54;58.42;102193.25;2053375;28;20054;-72
2022/07/15 00:28:18;;;;;;;0.05;0.05;;;17.10;68.20;;;18.51;58.54;102193.97;2053640;28;20058;-72
2022/07/15 00:29:25;;;;;;;0.10;0.10;;;17.10;68.30;;;18.48;58.12;102193.88;2052052;28;20697;-72
2022/07/15 00:30:32;;;;;;;0.10;0.10;;;17.10;68.10;;;18.45;58.23;102195.41;2052632;28;20078;-71
2022/07/15 00:31:35;;;;;;;0.10;0.10;;;17.00;67.90;;;18.43;58.17;102196.91;2053130;28;20193;-71
2022/07/15 00:32:38;;;;;;;0.10;0.10;;;17.00;67.90;;;18.41;58.27;102194.53;2052876;28;20058;-71
2022/07/15 00:33:41;;;;;;;0.00;0.00;;;17.00;67.70;;;18.37;58.05;102187.38;2051969;28;20393;-72
2022/07/15 00:34:44;;;;;;;0.10;0.10;;;17.00;67.50;;;18.34;58.08;102188.91;2041278;28;20494;-72
2022/07/15 00:35:47;;;;;;;0.00;0.00;;;17.00;67.50;;;18.32;57.69;102199.41;2044211;28;20513;-72
2022/07/15 00:36:51;;;;;;;0.10;0.10;;;16.90;67.20;;;18.29;57.65;102191.94;2053679;28;20471;-72
2022/07/15 00:37:54;;;;;;;0.10;0.10;;;16.90;67.20;;;18.27;57.55;102194.22;2052574;28;20054;-72
2022/07/15 00:38:58;;;;;;;0.10;0.10;;;16.90;67.40;;;18.24;57.79;102192.22;2053475;28;20073;-72
2022/07/15 00:40:00;;;;;;;0.10;0.10;;;16.90;67.40;;;18.22;57.60;102191.78;2055964;28;20493;-71
2022/07/15 00:41:04;;;;;;;0.10;0.10;;;16.90;67.50;;;18.22;57.80;102188.25;2053898;28;20699;-72
2022/07/15 00:42:06;;;;;;;0.10;0.10;;;16.80;67.60;;;18.20;57.32;102194.09;2051818;28;20570;-72
2022/07/15 00:43:10;;;;;;;0.10;0.10;;;16.80;67.00;;;18.16;57.41;102195.16;2045240;28;20073;-71
2022/07/15 00:44:13;;;;;;;0.10;0.10;;;16.80;66.90;;;18.13;57.55;102196.66;2046740;28;20057;-70
2022/07/15 00:45:20;;;;;;;0.00;0.00;;;16.70;67.00;;;18.11;57.53;102190.75;2045205;28;20051;-70
2022/07/15 00:46:23;;;;;;;0.10;0.10;;;16.70;67.20;;;18.10;57.58;102194.66;2046020;28;20094;-71
2022/07/15 00:47:27;;;;;;;0.10;0.10;;;16.70;67.30;;;18.08;57.57;102182.47;2043303;28;20066;-71
2022/07/15 00:48:31;;;;;;;0.10;0.10;;;16.70;67.30;;;18.09;57.33;102184.88;2043584;28;20047;-71
2022/07/15 00:49:33;;;;;;;0.00;0.00;;;16.70;67.10;;;18.08;57.45;102196.13;2042764;29;20094;-71
2022/07/15 00:50:37;;;;;;;0.10;0.10;;;16.60;66.90;;;18.06;57.26;102188.31;2043193;28;20061;-71
2022/07/15 00:51:43;;;;;;;0.10;0.10;;;16.60;66.80;;;18.03;56.86;102197.22;2042211;28;20094;-71
2022/07/15 00:52:51;;;;;;;0.10;0.10;;;16.50;66.80;;;18.00;57.15;102189.75;2042761;29;20051;-71
2022/07/15 00:53:55;;;;;;;0.00;0.00;;;16.50;66.90;;;17.98;57.08;102185.78;2034619;29;20060;-71
2022/07/15 00:55:01;;;;;;;0.10;0.10;;;16.50;67.00;;;17.96;57.38;102188.88;2035348;29;20098;-72
2022/07/15 00:56:08;;;;;;;0.10;0.10;;;16.50;67.30;;;17.95;57.12;102187.28;2043128;28;20055;-72
2022/07/15 00:57:13;;;;;;;0.10;0.10;;;16.40;67.10;;;17.93;56.98;102187.63;2036556;29;20400;-71
2022/07/15 00:58:18;;;;;;;0.00;0.00;;;16.50;67.30;;;17.93;57.62;102186.88;2036845;29;20633;-71
2022/07/15 00:59:24;;;;;;;0.10;0.10;;;16.50;67.40;;;17.90;57.56;102191.09;2044076;28;20051;-72
2022/07/15 01:00:29;;;;;;;0.10;0.10;;;16.50;67.60;;;17.90;57.44;102190.31;2046225;28;20840;-71
2022/07/15 01:01:34;;;;;;;0.10;0.10;;;16.50;67.40;;;17.89;57.48;102189.50;2037302;29;20055;-71
2022/07/15 01:02:38;;;;;;;0.10;0.10;;;16.50;67.20;;;17.89;57.48;102199.66;2038120;28;20067;-71
2022/07/15 01:05:23;;;;;;;0.10;0.10;;;16.50;67.10;;;17.87;57.31;102201.94;2045880;28;20051;-63
2022/07/15 01:06:27;;;;;;;0.10;0.10;;;16.40;67.10;;;17.85;57.41;102198.78;2051728;28;20476;-63
2022/07/15 01:07:30;;;;;;;0.10;0.10;;;16.50;67.10;;;17.82;57.62;102199.50;2050179;28;20043;-62
2022/07/15 01:08:33;;;;;;;0.03;0.03;;;16.40;67.10;;;17.81;57.74;102198.69;2051980;28;20062;-63
2022/07/15 01:09:36;;;;;;;0.10;0.10;;;16.50;67.20;;;17.82;57.66;102191.31;2051802;28;20156;-63
2022/07/15 01:10:40;;;;;;;0.10;0.10;;;16.40;67.30;;;17.85;57.70;102193.31;2052754;28;20066;-64
2022/07/15 01:11:43;;;;;;;0.10;0.10;;;16.50;67.40;;;17.86;57.80;102190.22;2047109;28;20596;-63
2022/07/15 01:12:47;;;;;;;0.10;0.10;;;16.50;67.40;;;17.88;57.97;102198.06;2050836;28;20470;-62
2022/07/15 01:13:52;;;;;;;0.10;0.10;;;16.50;67.30;;;17.88;57.79;102204.34;2042297;29;20054;-63
2022/07/15 01:14:56;;;;;;;0.10;0.10;;;16.50;67.20;;;17.88;57.89;102196.13;2042145;28;20067;-63
2022/07/15 01:16:00;;;;;;;0.10;0.10;;;16.50;67.10;;;17.89;57.51;102199.66;2044133;28;20454;-62
2022/07/15 01:17:10;;;;;;;0.10;0.10;;;16.60;67.00;;;17.89;57.33;102183.25;2049014;28;20078;-63
2022/07/15 01:18:14;;;;;;;0.10;0.10;;;16.60;66.70;;;17.92;57.25;102198.16;2050115;28;20047;-62
2022/07/15 01:19:18;;;;;;;0.20;0.20;;;16.50;66.50;;;17.89;57.07;102191.44;2042587;28;20062;-62
2022/07/15 01:20:22;;;;;;;0.00;0.00;;;16.50;66.40;;;17.88;57.04;102195.34;2052406;28;20055;-62
2022/07/15 01:21:35;;;;;;;0.10;0.10;;;16.50;66.40;;;17.86;57.05;102195.69;2052283;28;20054;-62
2022/07/15 01:22:38;;;;;;;0.10;0.10;;;16.50;66.40;;;17.85;57.15;102193.31;2051945;28;20058;-62
2022/07/15 01:23:42;;;;;;;0.10;0.10;;;16.50;66.40;;;17.83;57.01;102196.41;2043044;28;20066;-62
2022/07/15 01:25:06;;;;;;;0.10;0.10;;;16.50;66.30;;;17.81;56.65;102193.25;2052216;28;20051;-62
2022/07/15 01:26:11;;;;;;;0.10;0.10;;;16.50;66.20;;;17.80;56.73;102196.31;2051442;28;20058;-63
2022/07/15 01:27:15;;;;;;;0.10;0.10;;;16.50;66.10;;;17.80;56.93;102193.59;2042770;29;20123;-63
2022/07/15 01:28:18;;;;;;;0.00;0.00;;;16.50;65.90;;;17.80;56.44;102188.13;2036092;29;20086;-62
2022/07/15 01:29:22;;;;;;;0.10;0.10;;;16.50;65.60;;;17.78;56.17;102193.94;2050657;28;20145;-63
2022/07/15 01:30:27;;;;;;;0.10;0.10;;;16.50;65.50;;;17.77;56.20;102197.81;2056692;28;20106;-62
2022/07/15 01:31:30;;;;;;;0.10;0.10;;;16.40;65.10;;;17.77;56.11;102197.81;2058912;28;20529;-62
2022/07/15 01:32:36;;;;;;;0.10;0.10;;;16.40;65.00;;;17.75;55.93;102196.59;2052014;28;20565;-63
2022/07/15 01:33:38;;;;;;;0.10;0.10;;;16.50;65.00;;;17.73;55.81;102196.94;2047874;28;20083;-62
2022/07/15 01:34:42;;;;;;;0.10;0.10;;;16.40;64.70;;;17.68;55.56;102190.97;2045006;29;20059;-63
2022/07/15 01:35:44;;;;;;;0.10;0.10;;;16.40;64.40;;;17.70;55.37;102194.13;2037985;29;20487;-62
2022/07/15 01:36:49;;;;;;;0.10;0.10;;;16.40;64.30;;;17.66;55.39;102202.25;2047125;28;20091;-63
2022/07/15 01:37:52;;;;;;;0.10;0.10;;;16.40;64.10;;;17.65;55.30;102197.13;2053464;28;20075;-63
2022/07/15 01:38:55;;;;;;;0.10;0.10;;;16.40;64.00;;;17.63;55.38;102207.66;2043810;29;20527;-63
2022/07/15 01:40:19;;;;;;;0.10;0.10;;;16.30;63.90;;;17.60;55.04;102209.13;2039926;29;20046;-62
2022/07/15 01:41:22;;;;;;;0.10;0.10;;;16.30;63.80;;;17.58;55.07;102205.94;2047355;28;20078;-62
2022/07/15 01:42:27;;;;;;;0.10;0.10;;;16.20;63.80;;;17.55;54.99;102205.88;2039952;29;20616;-62
2022/07/15 01:43:30;;;;;;;0.10;0.10;;;16.20;63.80;;;17.52;54.99;102207.38;2045530;28;20048;-62
2022/07/15 01:44:35;;;;;;;0.10;0.10;;;16.20;63.90;;;17.45;55.10;102200.97;2053757;28;20073;-62
2022/07/15 01:45:42;;;;;;;0.10;0.10;;;16.20;64.00;;;17.48;55.29;102213.91;2045383;29;20098;-62
2022/07/15 01:46:47;;;;;;;0.10;0.10;;;16.20;64.10;;;17.46;55.46;102208.00;2040390;29;20066;-62
2022/07/15 01:47:55;;;;;;;0.10;0.10;;;16.20;64.10;;;17.45;55.57;102214.59;2038888;29;20039;-62
2022/07/15 01:49:25;;;;;;;0.10;0.10;;;16.10;64.10;;;17.44;55.61;102210.28;2047137;28;20051;-62
2022/07/15 01:50:46;;;;;;;0.10;0.10;;;16.10;64.10;;;17.42;55.22;102213.34;2053981;28;20069;-62
2022/07/15 01:51:58;;;;;;;0.10;0.10;;;16.10;64.20;;;17.39;55.39;102213.25;2053849;28;20058;-62
2022/07/15 01:53:00;;;;;;;0.10;0.10;;;16.10;64.20;;;17.37;55.36;102210.09;2059536;28;20559;-62
2022/07/15 01:54:05;;;;;;;0.10;0.10;;;16.00;64.00;;;17.34;55.54;102219.00;2052140;28;20087;-61
2022/07/15 01:55:11;;;;;;;0.10;0.10;;;16.00;64.00;;;17.32;55.48;102213.06;2038818;29;20464;-62
2022/07/15 01:56:14;;;;;;;0.10;0.10;;;16.00;64.00;;;17.30;55.22;102215.38;2052053;28;20047;-62
2022/07/15 01:57:18;;;;;;;0.10;0.10;;;16.00;64.10;;;17.28;55.18;102217.66;2059311;28;20094;-62
2022/07/15 01:58:30;;;;;;;0.00;0.00;;;16.00;64.10;;;17.29;55.16;102211.06;2046071;29;20423;-62
2022/07/15 01:59:36;;;;;;;0.00;0.00;;;16.00;63.90;;;17.26;55.02;102209.84;2037507;29;20614;-62
2022/07/15 02:00:39;;;;;;;0.00;0.00;;;15.90;63.80;;;17.27;54.82;102205.16;2045579;28;20510;-62
2022/07/15 02:01:44;;;;;;;0.10;0.10;;;15.90;63.70;;;17.28;54.80;102212.22;2059264;28;20395;-62
2022/07/15 02:02:50;;;;;;;0.10;0.10;;;15.90;63.60;;;17.25;54.44;102213.69;2052878;28;20138;-62
2022/07/15 02:03:55;;;;;;;0.10;0.10;;;15.90;63.40;;;17.22;54.30;102214.41;2051041;28;20134;-62
2022/07/15 02:04:58;;;;;;;0.10;0.10;;;15.90;63.20;;;17.19;54.48;102214.31;2059415;28;20505;-61
2022/07/15 02:06:01;;;;;;;0.10;0.10;;;15.80;63.10;;;17.17;54.18;102208.44;2049890;28;20042;-62
2022/07/15 02:07:07;;;;;;;0.00;0.00;;;15.80;62.90;;;17.15;54.27;102213.44;2045780;28;20058;-62
2022/07/15 02:08:11;;;;;;;0.00;0.00;;;15.80;62.80;;;17.14;54.12;102211.84;2054950;28;20047;-62
2022/07/15 02:09:19;;;;;;;0.10;0.10;;;15.80;62.80;;;17.13;53.86;102215.72;2050881;28;20067;-62
2022/07/15 02:10:24;;;;;;;0.10;0.10;;;15.70;62.60;;;17.12;53.76;102214.94;2051932;28;20058;-62
2022/07/15 02:11:29;;;;;;;0.10;0.10;;;15.70;62.60;;;17.14;54.09;102209.13;2053134;28;20510;-62
2022/07/15 02:12:32;;;;;;;0.10;0.10;;;15.70;62.80;;;17.14;54.08;102217.31;2052252;28;20513;-62
2022/07/15 02:13:39;;;;;;;0.08;0.08;;;15.70;62.80;;;17.13;54.07;102210.25;2056675;28;20058;-62
2022/07/15 02:14:53;;;;;;;0.10;0.10;;;15.70;62.80;;;17.11;54.12;102212.56;2058393;28;20057;-62
2022/07/15 02:16:01;;;;;;;0.10;0.10;;;15.70;62.90;;;17.09;54.12;102214.84;2052993;28;20050;-62
2022/07/15 02:17:04;;;;;;;0.10;0.10;;;15.70;62.90;;;17.08;54.14;102207.78;2053161;28;20437;-62
2022/07/15 02:18:14;;;;;;;0.08;0.08;;;15.70;62.90;;;17.06;54.03;102210.84;2056664;28;20485;-62
2022/07/15 02:19:18;;;;;;;0.10;0.10;;;15.70;62.90;;;17.08;54.17;102213.25;2054268;28;20129;-62
2022/07/15 02:20:21;;;;;;;0.13;0.13;;;15.70;62.80;;;17.06;54.18;102216.31;2058052;28;20116;-62
2022/07/15 02:21:26;;;;;;;0.10;0.10;;;15.70;62.70;;;17.06;54.16;102216.31;2048643;28;20055;-62
2022/07/15 02:22:29;;;;;;;0.10;0.10;;;15.70;62.50;;;17.05;54.00;102220.19;2037758;28;20059;-62
2022/07/15 02:23:34;;;;;;;0.10;0.10;;;15.70;62.40;;;17.06;53.82;102221.00;2051717;28;20111;-62
2022/07/15 02:24:37;;;;;;;0.10;0.10;;;15.70;62.40;;;17.04;54.03;102215.09;2053551;28;20056;-62
2022/07/15 02:25:41;;;;;;;0.10;0.10;;;15.70;62.60;;;17.06;53.67;102216.31;2053343;28;20055;-62
2022/07/15 02:26:44;;;;;;;0.10;0.10;;;15.60;62.70;;;17.07;54.06;102214.38;2050650;28;20046;-61
2022/07/15 02:27:47;;;;;;;0.10;0.10;;;15.70;62.80;;;17.05;54.04;102214.75;2051373;28;20474;-61
2022/07/15 02:28:51;;;;;;;0.10;0.10;;;15.70;62.80;;;17.06;54.03;102216.31;2060711;28;20055;-61
2022/07/15 02:29:53;;;;;;;0.10;0.10;;;15.70;62.90;;;17.07;54.11;102223.38;2053555;28;20134;-62
2022/07/15 02:30:58;;;;;;;0.00;0.00;;;15.70;62.90;;;17.08;54.14;102216.78;2045557;28;20051;-62
2022/07/15 02:32:01;;;;;;;0.10;0.10;;;15.70;62.90;;;17.09;54.34;102217.56;2044047;28;20407;-62
2022/07/15 02:33:05;;;;;;;0.10;0.10;;;15.70;63.00;;;17.05;54.09;102209.28;2051629;28;20093;-62
2022/07/15 02:34:08;;;;;;;0.10;0.10;;;15.70;62.90;;;17.08;54.20;102219.50;2059525;28;20112;-62
2022/07/15 02:35:15;;;;;;;0.00;0.00;;;15.70;62.70;;;17.08;54.22;102215.97;2050933;28;20050;-62
2022/07/15 02:36:17;;;;;;;0.10;0.10;;;15.70;62.60;;;17.08;53.89;102210.50;2053734;28;20139;-62
2022/07/15 02:37:22;;;;;;;0.10;0.10;;;15.70;62.60;;;17.08;53.90;102202.31;2049754;28;20502;-62
2022/07/15 02:38:28;;;;;;;0.10;0.10;;;15.70;62.60;;;17.07;53.86;102212.47;2045681;28;20055;-62
2022/07/15 02:39:31;;;;;;;0.10;0.10;;;15.70;62.80;;;17.07;53.92;102206.19;2044510;28;20047;-62
2022/07/15 02:40:34;;;;;;;0.10;0.10;;;15.70;62.70;;;17.04;53.94;102204.19;2051192;28;20494;-62
2022/07/15 02:41:45;;;;;;;0.10;0.10;;;15.60;62.70;;;17.06;53.98;102208.13;2056583;28;20413;-62
2022/07/15 02:42:50;;;;;;;0.10;0.10;;;15.60;62.80;;;17.05;54.02;102205.75;2051714;28;20055;-62
2022/07/15 02:43:54;;;;;;;0.10;0.10;;;15.60;62.80;;;17.04;54.00;102206.91;2051249;28;20043;-62
2022/07/15 02:44:57;;;;;;;0.10;0.10;;;15.60;62.90;;;17.03;54.03;102208.06;2051830;28;20495;-62
2022/07/15 02:46:01;;;;;;;0.10;0.10;;;15.60;63.10;;;17.02;53.91;102212.72;2053368;28;20082;-62
2022/07/15 02:47:04;;;;;;;0.10;0.10;;;15.50;63.10;;;17.02;54.11;102211.91;2053763;28;20046;-62
2022/07/15 02:48:09;;;;;;;0.10;0.10;;;15.50;63.10;;;17.01;54.09;102208.41;2053318;28;20043;-62
2022/07/15 02:49:17;;;;;;;0.10;0.10;;;15.50;63.20;;;17.01;54.09;102213.06;2045674;28;20160;-62
2022/07/15 02:50:20;;;;;;;0.10;0.10;;;15.50;63.90;;;17.00;53.99;102214.22;2045191;28;20610;-62
2022/07/15 02:51:24;;;;;;;0.10;0.10;;;15.50;63.30;;;16.99;53.96;102213.41;2043977;28;20122;-62
2022/07/15 02:52:26;;;;;;;0.10;0.10;;;15.50;63.20;;;16.99;53.95;102215.34;2043789;29;20051;-62
2022/07/15 02:53:32;;;;;;;0.10;0.10;;;15.50;63.20;;;16.96;53.97;102211.41;2043887;28;20539;-62
2022/07/15 02:54:39;;;;;;;0.10;0.10;;;15.50;63.30;;;16.94;54.44;102212.88;2051281;28;20399;-62
2022/07/15 02:55:43;;;;;;;0.10;0.10;;;15.40;63.40;;;16.94;54.18;102210.94;2058828;28;20045;-62
2022/07/15 02:56:45;;;;;;;0.10;0.10;;;15.40;63.50;;;16.93;54.07;102217.56;2053351;28;20054;-62
2022/07/15 02:57:49;;;;;;;0.10;0.10;;;15.30;63.60;;;16.94;54.24;102218.31;2045061;28;20105;-62
2022/07/15 02:58:51;;;;;;;0.10;0.10;;;15.30;63.70;;;16.95;54.19;102215.25;2052363;28;20063;-62
2022/07/15 02:59:55;;;;;;;0.10;0.10;;;15.30;63.70;;;16.97;54.23;102209.44;2051075;28;20051;-62
2022/07/15 03:00:58;;;;;;;0.10;0.10;;;15.40;63.80;;;16.96;53.79;102210.59;2053210;28;20051;-62
2022/07/15 03:02:03;;;;;;;0.10;0.10;;;15.40;63.70;;;17.00;54.28;102212.25;2051084;28;20054;-63
2022/07/15 03:03:06;;;;;;;0.10;0.10;;;15.40;63.60;;;17.03;54.11;102213.53;2052883;28;20093;-62
2022/07/15 03:04:12;;;;;;;0.10;0.10;;;15.50;63.70;;;17.06;54.13;102208.13;2053353;28;20051;-62
2022/07/15 03:05:17;;;;;;;0.15;0.15;;;15.40;63.60;;;17.08;54.05;102219.50;2047924;28;20061;-62
2022/07/15 03:06:20;;;;;;;0.10;0.10;;;15.50;63.60;;;17.09;54.02;102223.84;2046673;28;20171;-62
2022/07/15 03:07:23;;;;;;;0.10;0.10;;;15.50;63.60;;;17.11;54.04;102207.88;2036585;28;20056;-62
2022/07/15 03:08:27;;;;;;;0.10;0.10;;;15.50;63.60;;;17.12;53.96;102219.59;2051345;28;20506;-62
2022/07/15 03:09:31;;;;;;;0.10;0.10;;;15.50;63.60;;;17.13;54.39;102216.50;2052828;28;20055;-63
2022/07/15 03:10:34;;;;;;;0.05;0.05;;;15.50;63.60;;;17.15;53.68;102218.88;2053739;28;20051;-65
2022/07/15 03:11:37;;;;;;;0.10;0.10;;;15.50;63.60;;;17.16;54.02;102218.53;2058671;28;20651;-62
2022/07/15 03:12:41;;;;;;;0.10;0.10;;;15.60;63.70;;;17.17;53.90;102217.38;2058528;28;20057;-62
2022/07/15 03:13:45;;;;;;;0.10;0.10;;;15.50;63.60;;;17.20;54.03;102221.38;2054841;28;20413;-63
2022/07/15 03:14:48;;;;;;;0.10;0.10;;;15.60;63.70;;;17.22;53.89;102219.09;2056460;28;20422;-62
2022/07/15 03:15:51;;;;;;;0.10;0.10;;;15.60;63.70;;;17.24;53.83;102214.84;2057868;28;20119;-62
2022/07/15 03:16:54;;;;;;;0.10;0.10;;;15.60;63.60;;;17.26;54.08;102209.03;2058489;28;20051;-62
2022/07/15 03:17:57;;;;;;;0.13;0.13;;;15.60;63.50;;;17.28;54.11;102225.84;2057959;28;20054;-62
2022/07/15 03:19:02;;;;;;;0.10;0.10;;;15.60;63.50;;;17.29;53.91;102224.69;2052405;28;20061;-62
2022/07/15 03:20:06;;;;;;;0.10;0.10;;;15.70;63.60;;;17.30;53.98;102221.63;2052115;28;20070;-62
2022/07/15 03:21:10;;;;;;;0.10;0.10;;;15.70;63.60;;;17.28;53.79;102223.13;2051067;28;20142;-62
2022/07/15 03:22:13;;;;;;;0.10;0.10;;;15.70;63.60;;;17.31;54.08;102228.69;2045187;28;20494;-62
2022/07/15 03:23:17;;;;;;;0.10;0.10;;;15.70;63.60;;;17.33;54.07;102220.16;2047393;28;20050;-62
2022/07/15 03:24:22;;;;;;;0.20;0.20;;;15.70;63.60;;;17.34;54.06;102224.44;2053853;28;20565;-62
2022/07/15 03:25:27;;;;;;;0.10;0.10;;;15.70;63.60;;;17.34;53.86;102227.19;2049998;28;20047;-63
2022/07/15 03:26:33;;;;;;;0.10;0.10;;;15.70;63.60;;;17.34;53.96;102232.63;2044484;28;20054;-62
2022/07/15 03:27:38;;;;;;;0.20;0.20;;;15.60;63.60;;;17.33;53.84;102231.06;2051964;28;20043;-62
2022/07/15 03:28:44;;;;;;;0.10;0.10;;;15.60;63.70;;;17.31;53.80;102228.69;2052401;28;20051;-63
2022/07/15 03:29:47;;;;;;;0.10;0.10;;;15.60;63.70;;;17.29;53.91;102224.69;2044062;29;20518;-63
2022/07/15 03:30:50;;;;;;;0.10;0.10;;;15.50;63.70;;;17.27;54.22;102222.31;2049481;28;20171;-63
2022/07/15 03:31:53;;;;;;;0.10;0.10;;;15.50;63.80;;;17.26;53.94;102225.41;2041958;28;20051;-64
2022/07/15 03:32:59;;;;;;;0.10;0.10;;;15.50;63.90;;;17.22;54.04;102224.53;2043923;28;20141;-63
2022/07/15 03:34:02;;;;;;;0.10;0.10;;;15.40;64.00;;;17.19;54.03;102226.03;2048822;28;20051;-63
2022/07/15 03:35:06;;;;;;;0.10;0.10;;;15.40;64.10;;;17.18;54.32;102229.09;2059438;28;20633;-65
2022/07/15 03:36:13;;;;;;;0.10;0.10;;;15.40;64.30;;;17.18;54.23;102226.38;2051928;28;20146;-63
2022/07/15 03:37:17;;;;;;;0.10;0.10;;;15.40;64.50;;;17.18;54.44;102231.84;2045287;29;20048;-63
2022/07/15 03:38:19;;;;;;;0.10;0.10;;;15.40;64.70;;;17.18;54.51;102229.09;2049759;28;20495;-63
2022/07/15 03:39:23;;;;;;;0.10;0.10;;;15.40;64.70;;;17.19;54.45;102231.47;2058469;28;20498;-63
2022/07/15 03:40:27;;;;;;;0.10;0.10;;;15.40;64.70;;;17.19;54.51;102230.69;2058801;28;20502;-63
2022/07/15 03:41:31;;;;;;;0.10;0.10;;;15.40;64.80;;;17.20;54.46;102232.28;2059710;28;20116;-63
2022/07/15 03:42:33;;;;;;;0.10;0.10;;;15.40;64.80;;;17.21;54.39;102231.13;2053416;28;20046;-63
2022/07/15 03:43:37;;;;;;;0.10;0.10;;;15.40;64.80;;;17.21;54.47;102223.75;2053611;28;20510;-63
2022/07/15 03:44:39;;;;;;;0.10;0.10;;;15.40;65.40;;;17.19;54.59;102228.75;2049527;28;20522;-64
2022/07/15 03:45:43;;;;;;;0.00;0.00;;;15.40;64.90;;;17.20;54.51;102226.81;2041988;28;20058;-64
2022/07/15 03:46:46;;;;;;;0.10;0.10;;;15.40;65.00;;;17.21;54.69;102231.13;2049993;28;20050;-63
2022/07/15 03:47:50;;;;;;;0.10;0.10;;;15.40;65.00;;;17.22;54.73;102230.00;2052587;28;20058;-63
2022/07/15 03:48:53;;;;;;;0.10;0.10;;;15.40;65.20;;;17.22;54.70;102230.78;2046110;28;20051;-63
2022/07/15 03:49:57;;;;;;;0.03;0.03;;;15.40;65.80;;;17.22;54.81;102230.78;2044494;28;20065;-63
2022/07/15 03:51:00;;;;;;;0.10;0.10;;;15.50;65.20;;;17.23;54.67;102228.84;2052928;28;20059;-63
2022/07/15 03:52:04;;;;;;;0.10;0.10;;;15.50;65.20;;;17.24;55.02;102233.16;2056623;28;20466;-63
2022/07/15 03:53:10;;;;;;;0.13;0.13;;;15.50;65.20;;;17.26;54.98;102239.88;2052794;28;20403;-63
2022/07/15 03:54:13;;;;;;;0.15;0.15;;;15.50;65.20;;;17.27;54.79;102232.44;2052981;28;20049;-63
2022/07/15 03:55:19;;;;;;;0.10;0.10;;;15.50;65.10;;;17.30;54.69;102240.72;2057699;28;20046;-63
2022/07/15 03:56:23;;;;;;;0.10;0.10;;;15.60;65.10;;;17.31;54.95;102236.06;2059057;28;20069;-62
2022/07/15 03:57:26;;;;;;;0.10;0.10;;;15.60;65.00;;;17.33;54.95;102244.72;2058426;28;20393;-62
2022/07/15 03:58:29;;;;;;;0.08;0.08;;;15.60;64.90;;;17.33;54.85;102245.47;2058590;28;20660;-63
2022/07/15 03:59:33;;;;;;;0.00;0.00;;;15.70;65.00;;;17.36;54.83;102244.00;2051639;28;20117;-62
2022/07/15 04:00:36;;;;;;;0.10;0.10;;;15.70;65.00;;;17.37;54.98;102245.56;2052518;28;20426;-62
2022/07/15 04:01:39;;;;;;;0.10;0.10;;;15.70;65.00;;;17.39;55.15;102246.03;2058995;28;20050;-63
2022/07/15 04:02:42;;;;;;;0.10;0.10;;;15.70;65.00;;;17.40;54.84;102248.41;2057877;28;20050;-63
2022/07/15 04:03:51;;;;;;;0.10;0.10;;;15.80;65.00;;;17.41;54.93;102252.72;2050621;28;20497;-62
2022/07/15 04:04:54;;;;;;;0.00;0.00;;;15.80;65.00;;;17.42;54.86;102250.78;2045553;28;20055;-62
2022/07/15 04:05:57;;;;;;;0.10;0.10;;;15.70;65.00;;;17.42;55.34;102246.13;2050890;28;20471;-62
2022/07/15 04:07:00;;;;;;;0.10;0.10;;;15.80;65.40;;;17.41;55.69;102244.53;2056755;28;20061;-62
2022/07/15 04:08:03;;;;;;;0.10;0.10;;;15.80;65.80;;;17.42;56.16;102248.84;2058080;28;20054;-62
2022/07/15 04:09:07;;;;;;;0.10;0.10;;;15.80;66.10;;;17.43;56.31;102242.25;2058442;28;20058;-62
2022/07/15 04:10:10;;;;;;;0.10;0.10;;;15.80;66.30;;;17.45;56.40;102255.56;2052209;28;20514;-63
2022/07/15 04:11:13;;;;;;;0.10;0.10;;;15.90;66.50;;;17.47;56.39;102247.81;2052803;28;20061;-62
2022/07/15 04:12:20;;;;;;;0.10;0.10;;;15.90;66.40;;;17.49;56.54;102251.00;2051435;28;20097;-63
2022/07/15 04:13:22;;;;;;;0.10;0.10;;;15.90;66.40;;;17.50;56.18;102245.19;2044637;28;20419;-62
2022/07/15 04:14:26;;;;;;;0.20;0.20;;;15.90;66.30;;;17.52;56.40;102255.75;2047553;28;20055;-62
2022/07/15 04:15:30;;;;;;;0.10;0.10;;;15.90;66.50;;;17.54;56.33;102251.50;2053156;28;20066;-63
2022/07/15 04:16:35;;;;;;;0.10;0.10;;;15.90;66.50;;;17.53;56.23;102254.59;2052753;28;20051;-63
2022/07/15 04:17:49;;;;;;;0.10;0.10;;;15.90;66.60;;;17.54;56.53;102253.44;2045769;28;20730;-63
2022/07/15 04:18:56;;;;;;;0.10;0.10;;;15.90;66.80;;;17.54;56.58;102253.44;2042392;28;20155;-62
2022/07/15 04:19:58;;;;;;;0.10;0.10;;;15.90;66.80;;;17.53;56.71;102258.13;2044529;28;20162;-62
2022/07/15 04:21:03;;;;;;;0.10;0.10;;;15.80;66.90;;;17.53;56.89;102257.34;2050784;28;20059;-63
2022/07/15 04:22:07;;;;;;;0.10;0.10;;;15.80;67.30;;;17.53;57.03;102262.78;2048336;28;20051;-63
2022/07/15 04:23:17;;;;;;;0.10;0.10;;;15.80;67.40;;;17.53;56.65;102251.88;2050698;28;20058;-63
2022/07/15 04:24:21;;;;;;;0.13;0.13;;;15.80;67.30;;;17.48;56.83;102254.84;2049458;28;20120;-63
2022/07/15 04:25:25;;;;;;;0.20;0.20;;;15.80;68.10;;;17.49;57.17;102268.16;2045532;28;20538;-63
2022/07/15 04:26:29;;;;;;;0.10;0.10;;;15.80;67.60;;;17.48;57.29;102260.31;2055517;28;20141;-62
2022/07/15 04:27:33;;;;;;;0.10;0.10;;;15.80;67.70;;;17.44;57.35;102259.41;2048148;28;20505;-63
2022/07/15 04:28:36;;;;;;;0.10;0.10;;;15.80;67.90;;;17.42;57.34;102258.97;2045113;28;20058;-63
2022/07/15 04:29:39;;;;;;;0.10;0.10;;;15.80;67.90;;;17.39;57.49;102263.22;2049879;28;20585;-63
2022/07/15 04:30:43;;;;;;;0.10;0.10;;;15.80;68.00;;;17.37;57.75;102257.31;2049571;28;20050;-63